createdAt,value
2019-03-16T00:00:29.649Z,64.8
2019-03-16T00:01:19.694Z,64.8
2019-03-16T00:02:09.476Z,64.8
2019-03-16T00:02:59.810Z,64.7
2019-03-16T00:03:49.581Z,64.7
2019-03-16T00:04:39.653Z,64.7
2019-03-16T00:05:28.981Z,64.7
2019-03-16T00:06:19.583Z,64.7
2019-03-16T00:07:09.333Z,64.7
2019-03-16T00:07:59.688Z,64.7
2019-03-16T00:08:49.959Z,64.6
2019-03-16T00:09:40.288Z,64.6
2019-03-16T00:10:30.333Z,64.6
2019-03-16T00:11:20.145Z,64.6
2019-03-16T00:12:09.991Z,64.6
2019-03-16T00:13:00.514Z,64.6
2019-03-16T00:13:50.106Z,64.6
2019-03-16T00:14:40.083Z,64.6
2019-03-16T00:15:30.178Z,64.6
2019-03-16T00:16:20.548Z,64.6
2019-03-16T00:17:10.268Z,64.6
2019-03-16T00:18:00.087Z,64.6
2019-03-16T00:18:50.370Z,64.6
2019-03-16T00:19:40.978Z,64.6
2019-03-16T00:20:31.059Z,64.5
2019-03-16T00:21:20.552Z,64.5
2019-03-16T00:22:10.360Z,64.5
2019-03-16T00:23:01.385Z,64.5
2019-03-16T00:23:50.745Z,64.5
2019-03-16T00:24:41.065Z,64.5
2019-03-16T00:25:31.222Z,64.5
2019-03-16T00:26:21.197Z,64.4
2019-03-16T00:27:11.252Z,64.4
2019-03-16T00:28:01.022Z,64.4
2019-03-16T00:28:51.377Z,64.4
2019-03-16T00:29:41.460Z,64.4
2019-03-16T00:30:31.011Z,64.4
2019-03-16T00:31:21.540Z,64.4
2019-03-16T00:32:17.112Z,64.4
2019-03-16T00:33:00.909Z,64.4
2019-03-16T00:33:51.505Z,64.4
2019-03-16T00:34:41.031Z,64.4
2019-03-16T00:35:31.110Z,64.4
2019-03-16T00:36:22.170Z,64.4
2019-03-16T00:37:11.954Z,64.4
2019-03-16T00:38:01.739Z,64.4
2019-03-16T00:38:52.073Z,64.3
2019-03-16T00:39:42.409Z,64.3
2019-03-16T00:40:31.896Z,64.3
2019-03-16T00:41:22.247Z,64.3
2019-03-16T00:42:12.291Z,64.3
2019-03-16T00:43:02.668Z,64.3
2019-03-16T00:43:52.147Z,64.3
2019-03-16T00:44:42.494Z,64.3
2019-03-16T00:45:32.007Z,64.3
2019-03-16T00:46:22.614Z,64.3
2019-03-16T00:47:12.398Z,64.3
2019-03-16T00:48:03.004Z,64.3
2019-03-16T00:48:53.064Z,64.3
2019-03-16T00:49:43.123Z,64.3
2019-03-16T00:50:32.633Z,64.2
2019-03-16T00:51:22.951Z,64.2
2019-03-16T00:52:13.009Z,64.3
2019-03-16T00:53:03.066Z,64.2
2019-03-16T00:53:52.592Z,64.2
2019-03-16T00:54:42.928Z,64.2
2019-03-16T00:55:32.988Z,64.2
2019-03-16T00:56:23.598Z,64.1
2019-03-16T00:57:13.117Z,64.2
2019-03-16T00:58:03.149Z,64.2
2019-03-16T00:58:53.208Z,64.1
2019-03-16T00:59:43.888Z,64.1
2019-03-16T01:00:33.693Z,64.1
2019-03-16T01:01:23.659Z,64.1
2019-03-16T01:02:27.648Z,64.1
2019-03-16T01:03:03.795Z,64.1
2019-03-16T01:03:54.130Z,64.1
2019-03-16T01:04:43.915Z,64.1
2019-03-16T01:05:33.993Z,64.1
2019-03-16T01:06:23.477Z,64.1
2019-03-16T01:07:13.252Z,64.1
2019-03-16T01:08:03.611Z,64.1
2019-03-16T01:08:53.947Z,64.1
2019-03-16T01:09:47.363Z,64
2019-03-16T01:10:34.354Z,64
2019-03-16T01:11:24.672Z,64
2019-03-16T01:12:14.525Z,64
2019-03-16T01:13:04.231Z,64
2019-03-16T01:13:53.997Z,64
2019-03-16T01:14:44.897Z,64
2019-03-16T01:15:34.382Z,63.9
2019-03-16T01:16:24.782Z,63.9
2019-03-16T01:17:14.500Z,63.9
2019-03-16T01:18:04.844Z,63.9
2019-03-16T01:18:54.611Z,63.9
2019-03-16T01:19:44.969Z,63.9
2019-03-16T01:20:35.014Z,63.9
2019-03-16T01:21:25.399Z,63.9
2019-03-16T01:22:15.147Z,63.9
2019-03-16T01:23:04.940Z,63.9
2019-03-16T01:23:55.549Z,63.9
2019-03-16T01:24:45.041Z,63.9
2019-03-16T01:25:35.382Z,63.9
2019-03-16T01:26:25.259Z,63.9
2019-03-16T01:27:15.764Z,63.9
2019-03-16T01:28:05.561Z,63.9
2019-03-16T01:28:55.349Z,63.8
2019-03-16T01:29:45.674Z,63.8
2019-03-16T01:30:35.569Z,63.8
2019-03-16T01:31:25.809Z,63.8
2019-03-16T01:32:15.851Z,63.8
2019-03-16T01:33:06.204Z,63.8
2019-03-16T01:33:55.973Z,63.8
2019-03-16T01:34:47.848Z,63.8
2019-03-16T01:35:36.371Z,63.8
2019-03-16T01:36:26.431Z,63.8
2019-03-16T01:37:15.117Z,63.8
2019-03-16T01:38:06.285Z,63.8
2019-03-16T01:38:56.313Z,63.8
2019-03-16T01:39:46.394Z,63.8
2019-03-16T01:40:36.318Z,63.8
2019-03-16T01:41:26.013Z,63.8
2019-03-16T01:42:16.357Z,63.7
2019-03-16T01:43:06.149Z,63.7
2019-03-16T01:43:55.663Z,63.7
2019-03-16T01:44:46.478Z,63.7
2019-03-16T01:45:36.526Z,63.7
2019-03-16T01:46:26.883Z,63.7
2019-03-16T01:47:16.915Z,63.6
2019-03-16T01:48:07.003Z,63.6
2019-03-16T01:48:56.755Z,63.6
2019-03-16T01:49:47.361Z,63.6
2019-03-16T01:50:37.271Z,63.6
2019-03-16T01:51:27.222Z,63.6
2019-03-16T01:52:16.800Z,63.6
2019-03-16T01:53:07.327Z,63.6
2019-03-16T01:53:57.119Z,63.6
2019-03-16T01:54:47.440Z,63.6
2019-03-16T01:55:37.860Z,63.6
2019-03-16T01:56:27.841Z,63.6
2019-03-16T01:57:17.720Z,63.6
2019-03-16T01:58:07.977Z,63.6
2019-03-16T01:58:57.755Z,63.6
2019-03-16T01:59:47.545Z,63.5
2019-03-16T02:00:37.822Z,63.5
2019-03-16T02:01:28.237Z,63.5
2019-03-16T02:02:17.161Z,63.5
2019-03-16T02:03:07.758Z,63.5
2019-03-16T02:03:58.183Z,63.5
2019-03-16T02:04:48.225Z,63.5
2019-03-16T02:05:37.714Z,63.4
2019-03-16T02:06:28.274Z,63.5
2019-03-16T02:07:18.606Z,63.4
2019-03-16T02:08:08.202Z,63.4
2019-03-16T02:08:57.979Z,63.4
2019-03-16T02:09:47.730Z,63.4
2019-03-16T02:10:38.289Z,63.4
2019-03-16T02:11:28.341Z,63.4
2019-03-16T02:12:18.409Z,63.4
2019-03-16T02:13:08.490Z,63.4
2019-03-16T02:13:58.812Z,63.4
2019-03-16T02:14:49.151Z,63.4
2019-03-16T02:15:38.947Z,63.4
2019-03-16T02:16:28.998Z,63.4
2019-03-16T02:17:18.766Z,63.4
2019-03-16T02:18:08.281Z,63.4
2019-03-16T02:18:59.152Z,63.4
2019-03-16T02:19:49.483Z,63.3
2019-03-16T02:20:38.724Z,63.3
2019-03-16T02:21:29.536Z,63.3
2019-03-16T02:22:19.446Z,63.3
2019-03-16T02:23:09.177Z,63.3
2019-03-16T02:23:59.038Z,63.3
2019-03-16T02:24:49.895Z,63.3
2019-03-16T02:25:39.683Z,63.3
2019-03-16T02:26:29.968Z,63.3
2019-03-16T02:27:20.025Z,63.3
2019-03-16T02:28:10.070Z,63.3
2019-03-16T02:29:00.143Z,63.3
2019-03-16T02:29:49.984Z,63.3
2019-03-16T02:30:39.750Z,63.2
2019-03-16T02:31:30.357Z,63.3
2019-03-16T02:32:19.847Z,63.2
2019-03-16T02:33:17.290Z,63.2
2019-03-16T02:34:00.257Z,63.2
2019-03-16T02:34:50.577Z,63.2
2019-03-16T02:35:40.135Z,63.2
2019-03-16T02:36:30.177Z,63.2
2019-03-16T02:37:20.500Z,63.1
2019-03-16T02:38:10.282Z,63.1
2019-03-16T02:39:00.651Z,63.1
2019-03-16T02:39:50.133Z,63.1
2019-03-16T02:40:40.443Z,63.1
2019-03-16T02:41:30.837Z,63.1
2019-03-16T02:42:21.251Z,63.1
2019-03-16T02:43:10.634Z,63.1
2019-03-16T02:44:00.690Z,63.1
2019-03-16T02:44:51.166Z,63.1
2019-03-16T02:45:40.933Z,63.1
2019-03-16T02:46:31.420Z,63.1
2019-03-16T02:47:20.743Z,63.1
2019-03-16T02:48:10.848Z,63.1
2019-03-16T02:49:00.844Z,63.1
2019-03-16T02:49:51.125Z,63
2019-03-16T02:50:41.479Z,63
2019-03-16T02:51:31.493Z,63
2019-03-16T02:52:21.586Z,63
2019-03-16T02:53:11.538Z,63
2019-03-16T02:54:01.690Z,63
2019-03-16T02:54:51.741Z,63
2019-03-16T02:55:41.762Z,63
2019-03-16T02:56:31.859Z,62.9
2019-03-16T02:57:21.894Z,62.9
2019-03-16T02:58:12.009Z,62.9
2019-03-16T02:59:02.118Z,62.9
2019-03-16T02:59:52.219Z,62.9
2019-03-16T03:00:42.149Z,62.9
2019-03-16T03:01:32.479Z,62.9
2019-03-16T03:02:22.614Z,62.9
2019-03-16T03:03:31.044Z,62.9
2019-03-16T03:04:02.278Z,62.9
2019-03-16T03:07:34.311Z,62.8
2019-03-16T03:08:24.084Z,62.8
2019-03-16T03:09:14.126Z,62.8
2019-03-16T03:10:04.604Z,62.8
2019-03-16T03:10:54.550Z,62.8
2019-03-16T03:11:44.016Z,62.8
2019-03-16T03:12:34.672Z,62.8
2019-03-16T03:13:24.191Z,62.8
2019-03-16T03:14:15.000Z,62.8
2019-03-16T03:15:04.833Z,62.8
2019-03-16T03:15:54.871Z,62.8
2019-03-16T03:16:44.949Z,62.8
2019-03-16T03:17:34.770Z,62.8
2019-03-16T03:18:24.498Z,62.8
2019-03-16T03:19:14.897Z,62.8
2019-03-16T03:20:04.671Z,62.8
2019-03-16T03:20:55.138Z,62.7
2019-03-16T03:21:45.317Z,62.7
2019-03-16T03:22:35.338Z,62.7
2019-03-16T03:23:25.427Z,62.7
2019-03-16T03:24:14.919Z,62.7
2019-03-16T03:25:05.525Z,62.7
2019-03-16T03:25:55.424Z,62.6
2019-03-16T03:26:45.528Z,62.7
2019-03-16T03:27:35.516Z,62.6
2019-03-16T03:28:25.772Z,62.6
2019-03-16T03:29:15.797Z,62.6
2019-03-16T03:30:06.298Z,62.6
2019-03-16T03:30:55.749Z,62.6
2019-03-16T03:31:45.522Z,62.6
2019-03-16T03:32:36.227Z,62.6
2019-03-16T03:33:26.047Z,62.6
2019-03-16T03:34:16.241Z,62.6
2019-03-16T03:35:06.294Z,62.6
2019-03-16T03:35:56.013Z,62.6
2019-03-16T03:36:46.191Z,62.6
2019-03-16T03:37:35.887Z,62.6
2019-03-16T03:38:26.175Z,62.5
2019-03-16T03:39:15.692Z,62.5
2019-03-16T03:40:06.588Z,62.5
2019-03-16T03:41:01.056Z,62.5
2019-03-16T03:41:46.768Z,62.5
2019-03-16T03:42:36.858Z,62.5
2019-03-16T03:43:26.562Z,62.5
2019-03-16T03:44:16.942Z,62.5
2019-03-16T03:45:06.450Z,62.5
2019-03-16T03:45:56.987Z,62.4
2019-03-16T03:46:46.505Z,62.4
2019-03-16T03:47:36.876Z,62.4
2019-03-16T03:48:26.929Z,62.4
2019-03-16T03:49:17.061Z,62.4
2019-03-16T03:50:06.991Z,62.4
2019-03-16T03:50:57.447Z,62.4
2019-03-16T03:51:47.137Z,62.4
2019-03-16T03:52:36.933Z,62.4
2019-03-16T03:53:27.231Z,62.4
2019-03-16T03:54:17.081Z,62.4
2019-03-16T03:55:07.433Z,62.4
2019-03-16T03:55:57.582Z,62.4
2019-03-16T03:56:47.489Z,62.4
2019-03-16T03:57:37.590Z,62.4
2019-03-16T03:58:27.351Z,62.3
2019-03-16T03:59:17.801Z,62.3
2019-03-16T04:00:07.471Z,62.3
2019-03-16T04:00:57.820Z,62.3
2019-03-16T04:01:48.099Z,62.3
2019-03-16T04:02:37.955Z,62.3
2019-03-16T04:03:27.980Z,62.3
2019-03-16T04:04:19.868Z,62.3
2019-03-16T04:05:08.336Z,62.3
2019-03-16T04:05:57.587Z,62.3
2019-03-16T04:06:48.195Z,62.3
2019-03-16T04:07:38.228Z,62.3
2019-03-16T04:08:28.280Z,62.3
2019-03-16T04:09:18.679Z,62.3
2019-03-16T04:10:08.771Z,62.3
2019-03-16T04:10:58.481Z,62.2
2019-03-16T04:11:48.853Z,62.2
2019-03-16T04:12:38.940Z,62.2
2019-03-16T04:13:28.385Z,62.2
2019-03-16T04:14:18.561Z,62.2
2019-03-16T04:15:08.787Z,62.2
2019-03-16T04:15:58.609Z,62.2
2019-03-16T04:16:49.213Z,62.1
2019-03-16T04:17:38.714Z,62.2
2019-03-16T04:18:28.990Z,62.1
2019-03-16T04:19:19.351Z,62.1
2019-03-16T04:20:09.123Z,62.1
2019-03-16T04:20:59.184Z,62.1
2019-03-16T04:21:49.377Z,62.1
2019-03-16T04:22:39.636Z,62.1
2019-03-16T04:23:29.628Z,62.1
2019-03-16T04:24:19.543Z,62.1
2019-03-16T04:25:09.500Z,62.1
2019-03-16T04:25:59.792Z,62.1
2019-03-16T04:26:49.299Z,62.1
2019-03-16T04:27:39.691Z,62.1
2019-03-16T04:28:29.797Z,62.1
2019-03-16T04:29:19.754Z,62.1
2019-03-16T04:30:09.824Z,62
2019-03-16T04:31:00.266Z,62
2019-03-16T04:31:50.012Z,62
2019-03-16T04:32:40.002Z,62
2019-03-16T04:33:30.302Z,62
2019-03-16T04:34:33.279Z,62
2019-03-16T04:35:10.169Z,61.9
2019-03-16T04:36:00.488Z,61.9
2019-03-16T04:36:50.248Z,61.9
2019-03-16T04:37:40.493Z,61.9
2019-03-16T04:38:30.131Z,61.9
2019-03-16T04:39:20.795Z,61.9
2019-03-16T04:40:10.806Z,61.9
2019-03-16T04:41:00.257Z,61.9
2019-03-16T04:41:50.077Z,61.9
2019-03-16T04:42:40.267Z,61.9
2019-03-16T04:43:29.678Z,61.9
2019-03-16T04:44:20.363Z,61.9
2019-03-16T04:45:10.624Z,61.9
2019-03-16T04:46:00.406Z,61.9
2019-03-16T04:46:50.743Z,61.9
2019-03-16T04:47:41.309Z,61.9
2019-03-16T04:48:31.072Z,61.8
2019-03-16T04:49:20.311Z,61.8
2019-03-16T04:50:11.470Z,61.8
2019-03-16T04:51:01.251Z,61.8
2019-03-16T04:51:51.311Z,61.8
2019-03-16T04:52:41.629Z,61.8
2019-03-16T04:53:31.434Z,61.8
2019-03-16T04:54:21.771Z,61.8
2019-03-16T04:55:11.402Z,61.8
2019-03-16T04:56:01.874Z,61.8
2019-03-16T04:56:51.951Z,61.8
2019-03-16T04:57:41.482Z,61.8
2019-03-16T04:58:31.876Z,61.8
2019-03-16T04:59:21.940Z,61.8
2019-03-16T05:00:12.214Z,61.8
2019-03-16T05:01:02.336Z,61.7
2019-03-16T05:01:51.731Z,61.7
2019-03-16T05:02:42.477Z,61.7
2019-03-16T05:03:32.223Z,61.7
2019-03-16T05:04:22.231Z,61.7
2019-03-16T05:05:11.771Z,61.6
2019-03-16T05:06:01.541Z,61.6
2019-03-16T05:06:52.678Z,61.7
2019-03-16T05:07:42.711Z,61.6
2019-03-16T05:08:32.508Z,61.6
2019-03-16T05:09:22.531Z,61.6
2019-03-16T05:10:12.898Z,61.6
2019-03-16T05:11:03.063Z,61.6
2019-03-16T05:11:52.981Z,61.6
2019-03-16T05:12:42.840Z,61.6
2019-03-16T05:13:33.109Z,61.6
2019-03-16T05:14:22.876Z,61.6
2019-03-16T05:15:13.026Z,61.6
2019-03-16T05:16:02.732Z,61.6
2019-03-16T05:16:53.347Z,61.6
2019-03-16T05:17:43.405Z,61.6
2019-03-16T05:18:33.451Z,61.5
2019-03-16T05:19:23.227Z,61.5
2019-03-16T05:20:13.320Z,61.5
2019-03-16T05:21:03.738Z,61.5
2019-03-16T05:21:53.680Z,61.5
2019-03-16T05:22:43.485Z,61.5
2019-03-16T05:23:33.852Z,61.5
2019-03-16T05:24:23.867Z,61.4
2019-03-16T05:25:13.940Z,61.4
2019-03-16T05:26:03.485Z,61.4
2019-03-16T05:26:54.124Z,61.4
2019-03-16T05:27:43.317Z,61.4
2019-03-16T05:28:34.163Z,61.4
2019-03-16T05:29:23.964Z,61.4
2019-03-16T05:30:14.134Z,61.4
2019-03-16T05:31:04.066Z,61.4
2019-03-16T05:31:54.833Z,61.4
2019-03-16T05:32:44.471Z,61.4
2019-03-16T05:33:34.521Z,61.4
2019-03-16T05:34:24.081Z,61.4
2019-03-16T05:35:14.377Z,61.3
2019-03-16T05:36:04.214Z,61.3
2019-03-16T05:36:58.166Z,61.3
2019-03-16T05:37:44.577Z,61.3
2019-03-16T05:38:34.608Z,61.3
2019-03-16T05:39:24.651Z,61.3
2019-03-16T05:40:14.691Z,61.3
2019-03-16T05:41:05.028Z,61.3
2019-03-16T05:41:54.881Z,61.3
2019-03-16T05:42:45.179Z,61.3
2019-03-16T05:43:35.292Z,61.3
2019-03-16T05:44:24.724Z,61.3
2019-03-16T05:45:15.122Z,61.3
2019-03-16T05:46:05.134Z,61.3
2019-03-16T05:46:55.453Z,61.2
2019-03-16T05:47:45.511Z,61.2
2019-03-16T05:48:35.301Z,61.2
2019-03-16T05:49:25.395Z,61.2
2019-03-16T05:50:15.699Z,61.2
2019-03-16T05:51:05.747Z,61.2
2019-03-16T05:51:55.848Z,61.1
2019-03-16T05:52:45.321Z,61.2
2019-03-16T05:53:35.933Z,61.2
2019-03-16T05:54:26.033Z,61.1
2019-03-16T05:55:16.170Z,61.1
2019-03-16T05:56:06.113Z,61.1
2019-03-16T05:56:56.192Z,61.1
2019-03-16T05:57:46.229Z,61.1
2019-03-16T05:58:35.795Z,61.1
2019-03-16T05:59:26.085Z,61.1
2019-03-16T06:00:16.433Z,61.1
2019-03-16T06:01:06.450Z,61.1
2019-03-16T06:01:56.593Z,61.1
2019-03-16T06:02:46.575Z,61.1
2019-03-16T06:03:36.373Z,61.1
2019-03-16T06:05:32.998Z,61
2019-03-16T06:06:23.590Z,61
2019-03-16T06:07:14.082Z,61
2019-03-16T06:08:04.000Z,61
2019-03-16T06:08:54.333Z,61
2019-03-16T06:09:44.125Z,61
2019-03-16T06:10:33.637Z,60.9
2019-03-16T06:11:24.235Z,60.9
2019-03-16T06:12:14.075Z,60.9
2019-03-16T06:13:04.637Z,60.9
2019-03-16T06:13:54.127Z,60.9
2019-03-16T06:14:44.757Z,60.9
2019-03-16T06:15:34.231Z,60.9
2019-03-16T06:16:24.582Z,60.9
2019-03-16T06:17:14.363Z,60.9
2019-03-16T06:18:04.974Z,60.9
2019-03-16T06:18:54.477Z,60.9
2019-03-16T06:19:44.546Z,60.9
2019-03-16T06:20:34.877Z,60.8
2019-03-16T06:21:25.212Z,60.8
2019-03-16T06:22:14.454Z,60.8
2019-03-16T06:23:05.334Z,60.8
2019-03-16T06:23:55.132Z,60.8
2019-03-16T06:24:44.892Z,60.8
2019-03-16T06:25:35.637Z,60.8
2019-03-16T06:26:24.743Z,60.8
2019-03-16T06:27:15.339Z,60.8
2019-03-16T06:28:05.401Z,60.8
2019-03-16T06:28:55.736Z,60.8
2019-03-16T06:29:45.824Z,60.8
2019-03-16T06:30:35.838Z,60.8
2019-03-16T06:31:25.431Z,60.8
2019-03-16T06:32:15.518Z,60.7
2019-03-16T06:33:05.764Z,60.7
2019-03-16T06:33:55.805Z,60.7
2019-03-16T06:34:45.601Z,60.7
2019-03-16T06:35:36.205Z,60.7
2019-03-16T06:36:26.343Z,60.6
2019-03-16T06:37:16.068Z,60.6
2019-03-16T06:38:06.386Z,60.6
2019-03-16T06:38:55.976Z,60.6
2019-03-16T06:39:45.966Z,60.6
2019-03-16T06:40:36.098Z,60.6
2019-03-16T06:41:26.085Z,60.6
2019-03-16T06:42:16.683Z,60.6
2019-03-16T06:43:06.757Z,60.6
2019-03-16T06:43:56.533Z,60.5
2019-03-16T06:44:46.670Z,60.5
2019-03-16T06:45:36.352Z,60.5
2019-03-16T06:46:27.088Z,60.5
2019-03-16T06:47:16.490Z,60.4
2019-03-16T06:48:06.245Z,60.4
2019-03-16T06:48:57.204Z,60.4
2019-03-16T06:49:46.637Z,60.4
2019-03-16T06:50:36.990Z,60.4
2019-03-16T06:51:27.075Z,60.4
2019-03-16T06:52:16.827Z,60.4
2019-03-16T06:53:06.620Z,60.3
2019-03-16T06:53:56.947Z,60.3
2019-03-16T06:54:47.575Z,60.3
2019-03-16T06:55:37.476Z,60.3
2019-03-16T06:56:27.500Z,60.3
2019-03-16T06:57:17.285Z,60.2
2019-03-16T06:58:07.520Z,60.2
2019-03-16T06:59:00.936Z,60.2
2019-03-16T06:59:47.440Z,60.2
2019-03-16T07:00:37.710Z,60.1
2019-03-16T07:01:27.805Z,60.1
2019-03-16T07:02:18.084Z,60.1
2019-03-16T07:03:08.159Z,60.1
2019-03-16T07:05:41.660Z,60.1
2019-03-16T07:06:23.814Z,60.1
2019-03-16T07:07:13.951Z,60.1
2019-03-16T07:08:03.669Z,60.1
2019-03-16T07:08:54.026Z,60
2019-03-16T07:09:43.864Z,60
2019-03-16T07:10:34.129Z,60
2019-03-16T07:11:23.691Z,60
2019-03-16T07:12:14.235Z,60
2019-03-16T07:13:04.334Z,60
2019-03-16T07:13:54.356Z,59.9
2019-03-16T07:14:44.414Z,59.9
2019-03-16T07:15:34.456Z,59.9
2019-03-16T07:16:24.000Z,59.9
2019-03-16T07:17:14.573Z,59.9
2019-03-16T07:18:04.386Z,59.9
2019-03-16T07:19:02.857Z,59.9
2019-03-16T07:19:44.850Z,59.9
2019-03-16T07:20:35.116Z,59.9
2019-03-16T07:21:24.896Z,59.8
2019-03-16T07:22:15.218Z,59.9
2019-03-16T07:23:04.730Z,59.8
2019-03-16T07:23:54.786Z,59.8
2019-03-16T07:24:45.415Z,59.8
2019-03-16T07:25:35.169Z,59.8
2019-03-16T07:26:25.221Z,59.8
2019-03-16T07:27:29.305Z,59.8
2019-03-16T07:28:05.716Z,59.8
2019-03-16T07:28:55.408Z,59.8
2019-03-16T07:29:45.472Z,59.8
2019-03-16T07:30:39.043Z,59.8
2019-03-16T07:31:25.620Z,59.8
2019-03-16T07:32:15.669Z,59.7
2019-03-16T07:33:05.466Z,59.7
2019-03-16T07:33:55.462Z,59.7
2019-03-16T07:34:45.822Z,59.7
2019-03-16T07:35:35.893Z,59.6
2019-03-16T07:36:26.252Z,59.6
2019-03-16T07:37:15.733Z,59.6
2019-03-16T07:38:06.052Z,59.6
2019-03-16T07:38:55.839Z,59.6
2019-03-16T07:39:45.623Z,59.6
2019-03-16T07:40:36.578Z,59.6
2019-03-16T07:41:26.034Z,59.6
2019-03-16T07:42:16.610Z,59.6
2019-03-16T07:43:06.687Z,59.6
2019-03-16T07:43:56.735Z,59.5
2019-03-16T07:44:46.329Z,59.5
2019-03-16T07:45:36.857Z,59.5
2019-03-16T07:46:26.360Z,59.5
2019-03-16T07:47:16.698Z,59.5
2019-03-16T07:48:07.132Z,59.4
2019-03-16T07:48:56.807Z,59.4
2019-03-16T07:49:46.628Z,59.4
2019-03-16T07:50:37.256Z,59.4
2019-03-16T07:51:27.003Z,59.4
2019-03-16T07:52:16.782Z,59.4
2019-03-16T07:53:06.837Z,59.4
2019-03-16T07:53:56.906Z,59.4
2019-03-16T07:54:47.509Z,59.4
2019-03-16T07:55:37.297Z,59.3
2019-03-16T07:56:27.149Z,59.3
2019-03-16T07:57:17.181Z,59.3
2019-03-16T07:58:06.981Z,59.3
2019-03-16T07:58:57.531Z,59.3
2019-03-16T07:59:47.042Z,59.3
2019-03-16T08:00:37.353Z,59.3
2019-03-16T08:01:27.427Z,59.3
2019-03-16T08:02:17.766Z,59.3
2019-03-16T08:03:07.534Z,59.3
2019-03-16T08:03:57.353Z,59.2
2019-03-16T08:04:47.474Z,59.2
2019-03-16T08:05:38.043Z,59.2
2019-03-16T08:06:27.860Z,59.2
2019-03-16T08:07:18.116Z,59.2
2019-03-16T08:08:07.899Z,59.1
2019-03-16T08:08:58.464Z,59.1
2019-03-16T08:09:48.038Z,59.1
2019-03-16T08:10:38.326Z,59.1
2019-03-16T08:11:28.687Z,59.1
2019-03-16T08:12:18.492Z,59.1
2019-03-16T08:13:08.028Z,59.1
2019-03-16T08:13:58.319Z,59.1
2019-03-16T08:14:48.365Z,59.1
2019-03-16T08:15:38.701Z,59.1
2019-03-16T08:16:28.762Z,59.1
2019-03-16T08:17:18.833Z,59
2019-03-16T08:18:10.695Z,59
2019-03-16T08:18:58.971Z,59
2019-03-16T08:19:49.080Z,59
2019-03-16T08:20:39.327Z,58.9
2019-03-16T08:21:29.412Z,58.9
2019-03-16T08:22:18.893Z,58.9
2019-03-16T08:23:09.234Z,58.9
2019-03-16T08:23:59.308Z,58.9
2019-03-16T08:24:49.607Z,58.9
2019-03-16T08:25:38.867Z,58.9
2019-03-16T08:26:28.654Z,58.9
2019-03-16T08:27:19.776Z,58.8
2019-03-16T08:28:09.845Z,58.8
2019-03-16T08:29:03.009Z,58.8
2019-03-16T08:29:49.701Z,58.8
2019-03-16T08:30:40.067Z,58.8
2019-03-16T08:31:29.828Z,58.8
2019-03-16T08:32:19.874Z,58.8
2019-03-16T08:33:09.672Z,58.8
2019-03-16T08:33:59.992Z,58.8
2019-03-16T08:34:49.219Z,58.8
2019-03-16T08:35:40.427Z,58.8
2019-03-16T08:36:29.966Z,58.7
2019-03-16T08:37:19.699Z,58.7
2019-03-16T08:38:10.022Z,58.7
2019-03-16T08:39:00.366Z,58.7
2019-03-16T08:39:50.464Z,58.6
2019-03-16T08:40:40.819Z,58.6
2019-03-16T08:41:30.539Z,58.6
2019-03-16T08:42:20.941Z,58.6
2019-03-16T08:43:10.176Z,58.6
2019-03-16T08:48:25.439Z,58.5
2019-03-16T08:49:00.511Z,58.5
2019-03-16T08:49:50.866Z,58.5
2019-03-16T08:50:41.176Z,58.5
2019-03-16T08:51:30.960Z,58.4
2019-03-16T08:52:21.064Z,58.4
2019-03-16T08:53:11.117Z,58.4
2019-03-16T08:54:01.166Z,58.4
2019-03-16T08:54:51.486Z,58.4
2019-03-16T08:55:41.823Z,58.4
2019-03-16T08:56:31.598Z,58.4
2019-03-16T08:57:21.650Z,58.4
2019-03-16T08:58:11.983Z,58.4
2019-03-16T08:59:01.830Z,58.3
2019-03-16T08:59:51.867Z,58.3
2019-03-16T09:00:41.885Z,58.3
2019-03-16T09:01:31.680Z,58.3
2019-03-16T09:02:21.732Z,58.3
2019-03-16T09:03:12.064Z,58.3
2019-03-16T09:04:01.832Z,58.3
2019-03-16T09:04:51.910Z,58.3
2019-03-16T09:05:42.302Z,58.3
2019-03-16T09:06:32.099Z,58.2
2019-03-16T09:07:22.155Z,58.2
2019-03-16T09:08:12.777Z,58.2
2019-03-16T09:09:02.195Z,58.2
2019-03-16T09:09:51.982Z,58.2
2019-03-16T09:10:42.049Z,58.1
2019-03-16T09:11:32.654Z,58.1
2019-03-16T09:12:22.815Z,58.1
2019-03-16T09:13:12.227Z,58.1
2019-03-16T09:14:02.565Z,58.1
2019-03-16T09:14:53.201Z,58.1
2019-03-16T09:15:43.017Z,58.1
2019-03-16T09:16:33.072Z,58.1
2019-03-16T09:17:23.089Z,58.1
2019-03-16T09:18:12.844Z,58
2019-03-16T09:19:03.474Z,58
2019-03-16T09:19:52.699Z,58
2019-03-16T09:20:43.590Z,58
2019-03-16T09:21:33.647Z,57.9
2019-03-16T09:22:23.710Z,57.9
2019-03-16T09:23:13.502Z,57.9
2019-03-16T09:24:03.301Z,57.9
2019-03-16T09:24:53.406Z,57.9
2019-03-16T09:25:43.380Z,57.9
2019-03-16T09:26:33.723Z,57.9
2019-03-16T09:27:34.845Z,57.9
2019-03-16T09:28:21.605Z,57.9
2019-03-16T09:29:17.437Z,57.9
2019-03-16T09:29:54.225Z,57.8
2019-03-16T09:30:43.733Z,57.8
2019-03-16T09:31:34.100Z,57.8
2019-03-16T09:32:23.845Z,57.8
2019-03-16T09:37:24.753Z,57.7
2019-03-16T09:38:14.292Z,57.7
2019-03-16T09:39:04.329Z,57.7
2019-03-16T09:39:54.674Z,57.7
2019-03-16T09:40:44.789Z,57.6
2019-03-16T09:41:34.585Z,57.6
2019-03-16T09:42:24.917Z,57.6
2019-03-16T09:43:14.901Z,57.6
2019-03-16T09:44:05.249Z,57.6
2019-03-16T09:44:55.304Z,57.6
2019-03-16T09:45:44.824Z,57.6
2019-03-16T09:46:35.134Z,57.6
2019-03-16T09:47:24.915Z,57.5
2019-03-16T09:48:15.272Z,57.6
2019-03-16T09:49:05.614Z,57.5
2019-03-16T09:49:55.638Z,57.5
2019-03-16T09:50:59.843Z,57.5
2019-03-16T09:51:34.931Z,57.4
2019-03-16T09:52:25.651Z,57.4
2019-03-16T09:53:15.348Z,57.4
2019-03-16T09:54:05.964Z,57.4
2019-03-16T09:54:55.265Z,57.4
2019-03-16T09:55:45.797Z,57.4
2019-03-16T09:56:35.576Z,57.4
2019-03-16T09:57:25.674Z,57.4
2019-03-16T09:58:16.242Z,57.3
2019-03-16T09:59:05.502Z,57.3
2019-03-16T09:59:56.089Z,57.3
2019-03-16T10:00:45.858Z,57.3
2019-03-16T10:01:35.719Z,57.3
2019-03-16T10:02:26.244Z,57.3
2019-03-16T10:03:16.317Z,57.3
2019-03-16T10:04:06.132Z,57.3
2019-03-16T10:06:33.332Z,57.2
2019-03-16T10:07:23.681Z,57.2
2019-03-16T10:08:14.035Z,57.1
2019-03-16T10:09:03.804Z,57.1
2019-03-16T10:09:54.134Z,57.1
2019-03-16T10:10:44.209Z,57.1
2019-03-16T10:11:33.759Z,57.1
2019-03-16T10:12:24.303Z,57.1
2019-03-16T10:13:13.911Z,57
2019-03-16T10:14:04.439Z,57
2019-03-16T10:14:53.964Z,57
2019-03-16T10:15:44.264Z,56.9
2019-03-16T10:16:34.317Z,56.9
2019-03-16T10:17:24.665Z,56.8
2019-03-16T10:18:14.535Z,56.8
2019-03-16T10:19:04.808Z,56.7
2019-03-16T10:19:54.288Z,56.7
2019-03-16T10:20:44.618Z,56.6
2019-03-16T10:21:34.716Z,56.5
2019-03-16T10:22:25.083Z,56.5
2019-03-16T10:23:14.550Z,56.4
2019-03-16T10:24:04.854Z,56.4
2019-03-16T10:24:55.190Z,56.4
2019-03-16T10:25:44.980Z,56.3
2019-03-16T10:26:38.008Z,56.3
2019-03-16T10:27:24.840Z,56.3
2019-03-16T10:28:14.880Z,56.3
2019-03-16T10:29:05.295Z,56.3
2019-03-16T10:29:55.083Z,56.3
2019-03-16T10:30:45.324Z,56.3
2019-03-16T10:31:35.683Z,56.3
2019-03-16T10:32:25.189Z,56.4
2019-03-16T10:33:15.546Z,56.4
2019-03-16T10:34:05.613Z,56.4
2019-03-16T10:34:55.895Z,56.4
2019-03-16T10:35:46.002Z,56.5
2019-03-16T10:36:35.256Z,56.6
2019-03-16T10:37:26.095Z,56.6
2019-03-16T10:38:15.867Z,56.6
2019-03-16T10:39:06.274Z,56.7
2019-03-16T10:39:55.978Z,56.7
2019-03-16T10:40:46.047Z,56.8
2019-03-16T10:41:35.547Z,56.8
2019-03-16T10:42:26.455Z,56.8
2019-03-16T10:43:16.282Z,56.9
2019-03-16T10:44:06.552Z,56.9
2019-03-16T10:44:56.604Z,56.9
2019-03-16T10:45:46.111Z,57
2019-03-16T10:46:36.545Z,57.1
2019-03-16T10:47:26.272Z,57.1
2019-03-16T10:48:16.297Z,57.1
2019-03-16T10:49:06.732Z,57.1
2019-03-16T10:49:56.423Z,57.1
2019-03-16T10:50:46.696Z,57.2
2019-03-16T10:51:36.822Z,57.3
2019-03-16T10:52:26.584Z,57.3
2019-03-16T10:53:17.209Z,57.3
2019-03-16T10:54:07.411Z,57.3
2019-03-16T10:54:57.086Z,57.4
2019-03-16T10:55:47.387Z,57.4
2019-03-16T10:56:37.444Z,57.4
2019-03-16T10:57:27.541Z,57.5
2019-03-16T10:58:17.561Z,57.5
2019-03-16T10:59:07.336Z,57.6
2019-03-16T10:59:57.421Z,57.6
2019-03-16T11:00:47.752Z,57.6
2019-03-16T11:01:37.823Z,57.6
2019-03-16T11:02:27.877Z,57.7
2019-03-16T11:03:17.371Z,57.7
2019-03-16T11:05:47.862Z,57.8
2019-03-16T11:06:38.197Z,57.8
2019-03-16T11:07:27.103Z,57.9
2019-03-16T11:08:18.308Z,57.9
2019-03-16T11:09:08.098Z,57.9
2019-03-16T11:09:57.855Z,57.9
2019-03-16T11:10:48.229Z,58
2019-03-16T11:11:38.585Z,58
2019-03-16T11:12:28.573Z,58.1
2019-03-16T11:13:17.626Z,58.1
2019-03-16T11:14:07.945Z,58.1
2019-03-16T11:14:57.932Z,58.1
2019-03-16T11:15:48.607Z,58.1
2019-03-16T11:16:38.950Z,58.1
2019-03-16T11:17:28.043Z,58.1
2019-03-16T11:18:18.711Z,58.2
2019-03-16T11:19:09.065Z,58.2
2019-03-16T11:19:58.849Z,58.2
2019-03-16T11:20:48.925Z,58.2
2019-03-16T11:21:38.715Z,58.2
2019-03-16T11:22:29.035Z,58.2
2019-03-16T11:23:19.065Z,58.2
2019-03-16T11:24:08.862Z,58.2
2019-03-16T11:24:59.197Z,58.2
2019-03-16T11:25:49.252Z,58.2